Time;durP1;ratioP1;P1;durP2;ratioP2;P2;SDS_P1;SDS_P2;PMS_P1;PMS_P2;Temp;Humidity;BMP_temperature;BMP_pressure;BME280_temperature;BME280_humidity;BME280_pressure;Samples;Min_cycle;Max_cycle;Signal;HPM_P1;HPM_P2
2022/02/19 00:01:25;;;;;;;21.65;20.33;;;;;;;;;;6185057;23;20625;-78
2022/02/19 00:03:52;;;;;;;20.70;19.50;;;;;;;;;;6185242;23;20205;-78
2022/02/19 00:06:21;;;;;;;21.90;20.10;;;;;;;;;;6185485;23;20172;-78
2022/02/19 00:08:48;;;;;;;23.80;21.83;;;;;;;;;;6185736;23;20608;-79
2022/02/19 00:11:16;;;;;;;21.95;20.35;;;;;;;;;;6185142;23;20497;-78
2022/02/19 00:13:44;;;;;;;21.67;20.08;;;;;;;;;;6185387;23;20173;-78
2022/02/19 00:16:11;;;;;;;23.00;21.27;;;;;;;;;;6184971;23;20525;-78
2022/02/19 00:18:38;;;;;;;21.77;20.38;;;;;;;;;;6185078;23;20169;-78
2022/02/19 00:21:06;;;;;;;21.40;20.02;;;;;;;;;;6185602;23;20224;-78
2022/02/19 00:23:35;;;;;;;21.77;20.02;;;;;;;;;;6185237;23;20201;-78
2022/02/19 00:26:02;;;;;;;22.00;20.55;;;;;;;;;;6185539;23;20169;-78
2022/02/19 00:28:29;;;;;;;23.13;21.25;;;;;;;;;;6184780;23;20600;-78
2022/02/19 00:30:57;;;;;;;23.38;21.50;;;;;;;;;;6159545;23;20212;-78
2022/02/19 00:33:25;;;;;;;23.15;21.45;;;;;;;;;;6185192;23;20197;-79
2022/02/19 00:35:52;;;;;;;22.08;20.50;;;;;;;;;;6185034;23;20895;-80
2022/02/19 00:38:20;;;;;;;22.58;21.02;;;;;;;;;;6185491;23;20180;-81
2022/02/19 00:40:50;;;;;;;21.65;20.05;;;;;;;;;;6185196;23;20248;-79
2022/02/19 00:43:17;;;;;;;21.65;20.25;;;;;;;;;;6184918;23;20264;-80
2022/02/19 00:45:45;;;;;;;22.05;20.75;;;;;;;;;;6184792;23;20612;-81
2022/02/19 00:48:14;;;;;;;22.85;21.35;;;;;;;;;;6185319;23;20197;-81
2022/02/19 00:50:43;;;;;;;21.25;19.90;;;;;;;;;;6185012;23;20197;-79
2022/02/19 00:53:10;;;;;;;21.40;19.85;;;;;;;;;;6184832;23;20222;-80
2022/02/19 00:55:38;;;;;;;22.00;20.60;;;;;;;;;;6184660;23;20656;-80
2022/02/19 00:58:07;;;;;;;21.80;20.42;;;;;;;;;;6158520;23;20228;-80
2022/02/19 01:00:34;;;;;;;21.30;19.90;;;;;;;;;;6184728;23;20173;-79
2022/02/19 01:03:02;;;;;;;21.73;20.27;;;;;;;;;;6184677;23;20166;-80
2022/02/19 01:05:29;;;;;;;21.50;19.77;;;;;;;;;;6184870;23;20216;-79
2022/02/19 01:07:56;;;;;;;22.13;20.33;;;;;;;;;;6184725;23;20177;-80
2022/02/19 01:10:24;;;;;;;21.83;20.42;;;;;;;;;;6184994;23;20175;-80
2022/02/19 01:12:51;;;;;;;22.35;20.55;;;;;;;;;;6184782;23;20165;-80
2022/02/19 01:15:20;;;;;;;21.65;20.05;;;;;;;;;;6185357;23;20169;-80
2022/02/19 01:17:48;;;;;;;21.20;19.63;;;;;;;;;;6184707;23;20176;-80
2022/02/19 01:20:15;;;;;;;21.10;19.70;;;;;;;;;;6184724;23;20177;-80
2022/02/19 01:22:42;;;;;;;20.90;19.58;;;;;;;;;;6185231;23;20166;-80
2022/02/19 01:25:10;;;;;;;23.48;21.23;;;;;;;;;;6184780;23;20189;-79
2022/02/19 01:27:38;;;;;;;22.65;21.45;;;;;;;;;;6158836;23;20636;-80
2022/02/19 01:30:06;;;;;;;22.48;20.65;;;;;;;;;;6185069;23;20166;-81
2022/02/19 01:32:35;;;;;;;22.30;20.77;;;;;;;;;;6158501;23;20257;-80
2022/02/19 01:35:03;;;;;;;20.25;18.90;;;;;;;;;;6158889;23;20180;-80
2022/02/19 01:37:30;;;;;;;21.05;19.70;;;;;;;;;;6184080;23;20177;-80
2022/02/19 01:39:57;;;;;;;21.10;19.75;;;;;;;;;;6185523;23;20169;-79
2022/02/19 01:42:26;;;;;;;21.55;20.25;;;;;;;;;;6186122;23;20181;-80
2022/02/19 01:44:54;;;;;;;22.10;19.77;;;;;;;;;;6186427;23;20197;-80
2022/02/19 01:47:22;;;;;;;20.58;19.48;;;;;;;;;;6160557;23;20166;-80
2022/02/19 01:49:51;;;;;;;21.33;19.75;;;;;;;;;;6186610;23;20279;-80
2022/02/19 01:52:19;;;;;;;21.17;19.50;;;;;;;;;;6186728;23;20625;-80
2022/02/19 01:54:48;;;;;;;20.15;18.85;;;;;;;;;;6186338;23;20201;-79
2022/02/19 01:57:16;;;;;;;22.13;20.20;;;;;;;;;;6186262;23;20539;-80
2022/02/19 01:59:43;;;;;;;21.15;19.63;;;;;;;;;;6186657;23;20169;-80
2022/02/19 02:02:11;;;;;;;19.58;18.58;;;;;;;;;;6186325;23;20613;-79
2022/02/19 02:04:39;;;;;;;21.50;19.88;;;;;;;;;;6186488;23;20228;-79
2022/02/19 02:07:09;;;;;;;20.85;19.55;;;;;;;;;;6186247;23;20173;-80
2022/02/19 02:09:37;;;;;;;20.95;19.42;;;;;;;;;;6186483;23;20679;-80
2022/02/19 02:12:06;;;;;;;20.30;19.20;;;;;;;;;;6159833;23;20224;-79
2022/02/19 02:14:38;;;;;;;20.75;19.33;;;;;;;;;;6186143;23;20181;-79
2022/02/19 02:17:05;;;;;;;20.45;19.05;;;;;;;;;;6186596;23;20189;-79
2022/02/19 02:19:33;;;;;;;20.13;19.02;;;;;;;;;;6186184;23;20620;-80
2022/02/19 02:22:02;;;;;;;20.83;18.95;;;;;;;;;;6186709;23;20672;-79
2022/02/19 02:24:32;;;;;;;22.17;20.48;;;;;;;;;;6186293;23;20193;-80
2022/02/19 02:27:00;;;;;;;21.58;19.83;;;;;;;;;;6186397;23;20161;-80
2022/02/19 02:29:28;;;;;;;20.60;19.30;;;;;;;;;;6186137;23;20185;-78
2022/02/19 02:31:55;;;;;;;20.27;19.05;;;;;;;;;;6186138;23;20632;-80
2022/02/19 02:34:22;;;;;;;20.02;18.90;;;;;;;;;;6186060;23;20232;-79
2022/02/19 02:36:50;;;;;;;21.50;19.88;;;;;;;;;;6186085;23;20166;-80
2022/02/19 02:39:19;;;;;;;20.02;18.80;;;;;;;;;;6186023;23;20165;-80
2022/02/19 02:41:46;;;;;;;19.00;17.90;;;;;;;;;;6186092;23;20174;-80
2022/02/19 02:44:14;;;;;;;19.80;18.40;;;;;;;;;;6186286;23;20216;-80
2022/02/19 02:46:41;;;;;;;20.15;18.63;;;;;;;;;;6185870;23;20220;-80
2022/02/19 02:49:08;;;;;;;20.90;19.35;;;;;;;;;;6186349;23;20162;-80
2022/02/19 02:51:36;;;;;;;20.70;19.10;;;;;;;;;;6185736;23;20353;-79
2022/02/19 02:54:03;;;;;;;19.70;18.58;;;;;;;;;;6185716;23;20202;-81
2022/02/19 02:56:32;;;;;;;19.30;18.30;;;;;;;;;;6159576;23;20173;-83
2022/02/19 02:59:00;;;;;;;20.23;18.88;;;;;;;;;;6186462;23;20171;-79
2022/02/19 03:01:27;;;;;;;19.60;18.30;;;;;;;;;;6185181;23;20552;-80
2022/02/19 03:03:54;;;;;;;19.80;18.38;;;;;;;;;;6185682;23;20194;-80
2022/02/19 03:06:22;;;;;;;19.98;18.70;;;;;;;;;;6186166;23;20542;-80
2022/02/19 03:08:49;;;;;;;20.50;19.20;;;;;;;;;;6186076;23;20480;-79
2022/02/19 03:11:16;;;;;;;19.33;18.15;;;;;;;;;;6185429;23;20170;-79
2022/02/19 03:13:45;;;;;;;20.95;19.38;;;;;;;;;;6185930;23;20162;-80
2022/02/19 03:16:13;;;;;;;21.02;19.63;;;;;;;;;;6185729;23;20639;-79
2022/02/19 03:18:40;;;;;;;20.80;19.17;;;;;;;;;;6186280;23;20161;-80
2022/02/19 03:21:07;;;;;;;19.30;18.20;;;;;;;;;;6185908;23;20166;-79
2022/02/19 03:23:36;;;;;;;20.35;19.13;;;;;;;;;;6185994;23;20186;-80
2022/02/19 03:26:07;;;;;;;20.15;19.05;;;;;;;;;;6159137;23;20690;-79
2022/02/19 03:28:34;;;;;;;21.98;20.33;;;;;;;;;;6186165;23;20605;-80
2022/02/19 03:31:03;;;;;;;20.63;19.38;;;;;;;;;;6185413;23;20625;-80
2022/02/19 03:33:31;;;;;;;20.92;19.60;;;;;;;;;;6185353;23;20170;-80
2022/02/19 03:35:58;;;;;;;20.25;18.95;;;;;;;;;;6185412;23;20177;-79
2022/02/19 03:38:25;;;;;;;20.75;19.20;;;;;;;;;;6185867;23;20533;-80
2022/02/19 03:40:53;;;;;;;20.63;19.33;;;;;;;;;;6185668;23;20632;-80
2022/02/19 03:43:20;;;;;;;19.92;18.77;;;;;;;;;;6185148;23;20621;-80
2022/02/19 03:45:48;;;;;;;20.45;19.02;;;;;;;;;;6185179;23;20204;-80
2022/02/19 03:48:16;;;;;;;20.05;18.77;;;;;;;;;;6185316;23;20166;-80
2022/02/19 03:50:44;;;;;;;20.70;19.38;;;;;;;;;;6185559;23;20194;-80
2022/02/19 03:53:13;;;;;;;19.88;18.80;;;;;;;;;;6185214;23;20683;-80
2022/02/19 03:55:41;;;;;;;20.23;18.90;;;;;;;;;;6184983;23;20502;-79
2022/02/19 03:58:08;;;;;;;19.92;18.70;;;;;;;;;;6185326;23;20188;-79
2022/02/19 04:00:36;;;;;;;21.23;19.80;;;;;;;;;;6184742;23;20220;-80
2022/02/19 04:03:03;;;;;;;21.80;19.65;;;;;;;;;;6184902;23;20170;-79
2022/02/19 04:05:32;;;;;;;19.10;18.10;;;;;;;;;;6184962;23;20190;-80
2022/02/19 04:08:00;;;;;;;20.27;18.73;;;;;;;;;;6185010;23;20166;-80
2022/02/19 04:10:28;;;;;;;20.13;18.88;;;;;;;;;;6185171;23;20173;-79
2022/02/19 04:12:55;;;;;;;20.85;19.10;;;;;;;;;;6185338;23;20607;-80
2022/02/19 04:15:23;;;;;;;20.38;18.67;;;;;;;;;;6159357;23;20177;-79
2022/02/19 04:17:50;;;;;;;20.73;19.42;;;;;;;;;;6185156;23;20480;-80
2022/02/19 04:20:18;;;;;;;19.67;18.52;;;;;;;;;;6185332;23;20169;-80
2022/02/19 04:22:46;;;;;;;19.88;18.48;;;;;;;;;;6185442;23;20172;-79
2022/02/19 04:25:14;;;;;;;20.23;18.52;;;;;;;;;;6185235;23;20671;-81
2022/02/19 04:27:41;;;;;;;19.45;18.35;;;;;;;;;;6185090;23;20170;-80
2022/02/19 04:30:09;;;;;;;19.85;18.52;;;;;;;;;;6185619;23;20165;-80
2022/02/19 04:32:37;;;;;;;19.70;18.40;;;;;;;;;;6185795;23;20162;-79
2022/02/19 04:35:04;;;;;;;21.40;19.65;;;;;;;;;;6185428;23;20173;-79
2022/02/19 04:37:32;;;;;;;20.35;19.02;;;;;;;;;;6185292;23;20196;-80
2022/02/19 04:40:01;;;;;;;21.08;19.13;;;;;;;;;;6185390;23;20476;-79
2022/02/19 04:42:29;;;;;;;20.10;18.83;;;;;;;;;;6184808;23;20244;-79
2022/02/19 04:44:57;;;;;;;22.10;20.75;;;;;;;;;;6184829;23;20741;-80
2022/02/19 04:50:32;;;;;;;20.67;18.70;;;;;;;;;;6143466;23;20287;-79
2022/02/19 04:53:00;;;;;;;19.35;18.08;;;;;;;;;;6184999;23;20611;-80
2022/02/19 04:55:28;;;;;;;20.48;19.08;;;;;;;;;;6184773;23;20866;-80
2022/02/19 04:57:56;;;;;;;19.73;18.35;;;;;;;;;;6185233;23;20162;-80
2022/02/19 05:00:23;;;;;;;20.55;18.90;;;;;;;;;;6185331;23;20188;-79
2022/02/19 05:02:51;;;;;;;20.50;18.90;;;;;;;;;;6158548;23;20209;-80
2022/02/19 05:05:18;;;;;;;21.25;19.65;;;;;;;;;;6185180;23;20255;-80
2022/02/19 05:07:46;;;;;;;20.95;19.30;;;;;;;;;;6185268;23;20644;-80
2022/02/19 05:10:14;;;;;;;20.02;18.75;;;;;;;;;;6158332;23;20252;-79
2022/02/19 05:12:43;;;;;;;20.92;19.42;;;;;;;;;;6184648;23;20165;-81
2022/02/19 05:15:11;;;;;;;21.58;19.77;;;;;;;;;;6186372;23;20165;-80
2022/02/19 05:17:45;;;;;;;19.83;18.65;;;;;;;;;;6186243;23;20200;-79
2022/02/19 05:20:12;;;;;;;19.30;18.20;;;;;;;;;;6187056;23;20169;-80
2022/02/19 05:22:40;;;;;;;20.05;18.80;;;;;;;;;;6187118;23;20169;-80
2022/02/19 05:25:07;;;;;;;21.20;20.00;;;;;;;;;;6186614;23;20193;-79
2022/02/19 05:27:35;;;;;;;19.20;18.15;;;;;;;;;;6186707;23;20628;-80
2022/02/19 05:30:04;;;;;;;19.65;18.42;;;;;;;;;;6186958;23;20181;-80
2022/02/19 05:32:32;;;;;;;19.33;18.13;;;;;;;;;;6186528;23;20173;-80
2022/02/19 05:34:59;;;;;;;21.77;19.52;;;;;;;;;;6186928;23;20166;-80
2022/02/19 05:37:26;;;;;;;20.20;18.80;;;;;;;;;;6186945;23;20166;-80
2022/02/19 05:39:54;;;;;;;20.88;19.38;;;;;;;;;;6186555;23;20173;-79
2022/02/19 05:42:21;;;;;;;20.08;18.67;;;;;;;;;;6186004;23;20169;-80
2022/02/19 05:44:48;;;;;;;19.33;18.27;;;;;;;;;;6186768;23;20198;-79
2022/02/19 05:47:19;;;;;;;19.80;18.70;;;;;;;;;;6186528;23;20612;-80
2022/02/19 05:49:47;;;;;;;20.48;19.10;;;;;;;;;;6186221;23;20201;-80
2022/02/19 05:52:15;;;;;;;19.75;18.33;;;;;;;;;;6186534;23;20512;-79
2022/02/19 05:54:42;;;;;;;19.75;18.65;;;;;;;;;;6186451;23;20202;-80
2022/02/19 05:57:10;;;;;;;19.90;18.60;;;;;;;;;;6186811;23;20165;-80
2022/02/19 05:59:38;;;;;;;19.50;18.30;;;;;;;;;;6186662;23;20166;-80
2022/02/19 06:02:05;;;;;;;20.50;19.15;;;;;;;;;;6135835;23;20173;-80
2022/02/19 06:04:34;;;;;;;20.15;18.80;;;;;;;;;;6186676;23;20162;-80
2022/02/19 06:07:02;;;;;;;20.58;19.38;;;;;;;;;;6186565;23;20174;-79
2022/02/19 06:09:29;;;;;;;21.77;20.10;;;;;;;;;;6187696;23;20488;-79
2022/02/19 06:11:57;;;;;;;20.50;19.10;;;;;;;;;;6186153;23;20500;-79
2022/02/19 06:14:24;;;;;;;21.10;19.13;;;;;;;;;;6186217;23;20169;-79
2022/02/19 06:16:52;;;;;;;21.63;19.65;;;;;;;;;;6186154;23;20484;-79
2022/02/19 06:19:19;;;;;;;23.27;19.30;;;;;;;;;;6160141;23;20172;-78
2022/02/19 06:21:48;;;;;;;20.35;19.05;;;;;;;;;;6186099;23;20200;-79
2022/02/19 06:24:16;;;;;;;20.50;19.13;;;;;;;;;;6186102;23;20166;-79
2022/02/19 06:26:43;;;;;;;20.88;19.35;;;;;;;;;;6185733;23;20204;-79
2022/02/19 06:29:10;;;;;;;21.13;19.75;;;;;;;;;;6186469;23;20168;-79
2022/02/19 06:31:38;;;;;;;22.40;20.70;;;;;;;;;;6185517;23;20178;-79
2022/02/19 06:34:05;;;;;;;20.02;18.92;;;;;;;;;;6186151;23;20524;-79
2022/02/19 06:36:32;;;;;;;21.50;19.70;;;;;;;;;;6186420;23;20166;-79
2022/02/19 06:39:01;;;;;;;21.50;20.15;;;;;;;;;;6186340;23;20165;-79
2022/02/19 06:41:29;;;;;;;26.45;19.55;;;;;;;;;;6186138;23;20161;-79
2022/02/19 06:43:56;;;;;;;21.13;19.60;;;;;;;;;;6186716;23;20173;-85
2022/02/19 06:46:23;;;;;;;23.10;20.73;;;;;;;;;;6185409;23;20507;-84
2022/02/19 06:48:51;;;;;;;22.25;20.80;;;;;;;;;;6186971;23;20162;-86
2022/02/19 06:51:19;;;;;;;26.05;24.60;;;;;;;;;;6186960;23;20162;-85
2022/02/19 06:53:46;;;;;;;21.13;19.58;;;;;;;;;;6186506;23;20209;-84
2022/02/19 06:56:15;;;;;;;21.63;19.60;;;;;;;;;;6186672;23;20161;-83
2022/02/19 06:58:42;;;;;;;20.20;18.77;;;;;;;;;;6186157;23;20177;-84
2022/02/19 07:01:10;;;;;;;20.45;19.02;;;;;;;;;;6186323;23;20169;-84
2022/02/19 07:03:38;;;;;;;19.42;18.02;;;;;;;;;;6186012;23;20600;-83
2022/02/19 07:06:06;;;;;;;21.17;19.33;;;;;;;;;;6186061;23;20189;-83
2022/02/19 07:08:33;;;;;;;19.67;18.15;;;;;;;;;;6186330;23;20170;-84
2022/02/19 07:11:00;;;;;;;20.52;18.85;;;;;;;;;;6186185;23;20166;-83
2022/02/19 07:13:29;;;;;;;19.10;18.00;;;;;;;;;;6160540;23;20174;-84
2022/02/19 07:15:57;;;;;;;22.20;20.05;;;;;;;;;;6186235;23;20177;-84
2022/02/19 07:18:24;;;;;;;20.88;19.17;;;;;;;;;;6186176;23;20600;-82
2022/02/19 07:20:51;;;;;;;21.10;19.40;;;;;;;;;;6186063;23;20169;-83
2022/02/19 07:23:19;;;;;;;20.23;18.88;;;;;;;;;;6186166;23;20197;-83
2022/02/19 07:25:46;;;;;;;20.77;19.40;;;;;;;;;;6186079;23;20192;-82
2022/02/19 07:28:14;;;;;;;22.02;20.27;;;;;;;;;;6186640;23;20166;-82
2022/02/19 07:30:43;;;;;;;20.73;19.23;;;;;;;;;;6186246;23;20169;-83
2022/02/19 07:33:11;;;;;;;21.27;19.60;;;;;;;;;;6185608;23;20184;-83
2022/02/19 07:35:38;;;;;;;20.52;19.42;;;;;;;;;;6185618;23;20671;-83
2022/02/19 07:38:07;;;;;;;21.67;19.58;;;;;;;;;;6185476;23;20161;-83
2022/02/19 07:40:34;;;;;;;20.13;18.70;;;;;;;;;;6185517;23;20166;-84
2022/02/19 07:43:01;;;;;;;21.70;19.70;;;;;;;;;;6185856;23;20166;-83
2022/02/19 07:45:29;;;;;;;18.92;17.70;;;;;;;;;;6185872;23;20200;-83
2022/02/19 07:47:58;;;;;;;21.83;20.13;;;;;;;;;;6159450;23;20181;-84
2022/02/19 07:58:40;;;;;;;21.10;19.75;;;;;;;;;;6125240;23;20558;-84
2022/02/19 08:01:10;;;;;;;22.20;20.65;;;;;;;;;;6126587;23;20166;-84
2022/02/19 08:03:39;;;;;;;21.00;19.60;;;;;;;;;;6126911;23;20173;-84
2022/02/19 08:06:06;;;;;;;19.85;18.75;;;;;;;;;;6126849;23;20506;-84
2022/02/19 08:08:34;;;;;;;20.60;19.23;;;;;;;;;;6126303;23;20522;-82
2022/02/19 08:11:02;;;;;;;21.38;20.05;;;;;;;;;;6126405;23;20194;-81
2022/02/19 08:13:29;;;;;;;20.77;19.25;;;;;;;;;;6125616;23;20257;-83
2022/02/19 08:15:57;;;;;;;21.00;19.77;;;;;;;;;;6126131;23;20177;-82
2022/02/19 08:18:25;;;;;;;21.38;20.08;;;;;;;;;;6124741;23;20625;-83
2022/02/19 08:20:54;;;;;;;21.70;20.38;;;;;;;;;;6126575;23;20206;-84
2022/02/19 08:23:22;;;;;;;22.38;20.70;;;;;;;;;;6126151;23;20167;-84
2022/02/19 08:25:50;;;;;;;22.83;20.90;;;;;;;;;;6126499;23;20514;-84
2022/02/19 08:28:18;;;;;;;21.33;19.92;;;;;;;;;;6125858;23;20167;-82
2022/02/19 08:30:46;;;;;;;22.75;20.80;;;;;;;;;;6125901;23;20717;-83
2022/02/19 08:33:14;;;;;;;23.45;21.65;;;;;;;;;;6126522;23;20163;-82
2022/02/19 08:35:42;;;;;;;22.13;20.73;;;;;;;;;;6126443;23;20171;-83
2022/02/19 08:38:12;;;;;;;24.50;22.00;;;;;;;;;;6126428;23;20249;-83
2022/02/19 08:40:39;;;;;;;21.73;20.42;;;;;;;;;;6125940;23;20167;-82
2022/02/19 08:43:07;;;;;;;21.58;20.10;;;;;;;;;;6125712;23;20174;-80
2022/02/19 08:45:35;;;;;;;22.27;20.42;;;;;;;;;;6124150;23;20178;-79
2022/02/19 08:48:05;;;;;;;22.45;20.85;;;;;;;;;;6125715;23;20610;-80
2022/02/19 08:50:34;;;;;;;20.92;19.38;;;;;;;;;;6125425;23;20259;-80
2022/02/19 08:53:01;;;;;;;20.40;19.20;;;;;;;;;;6126109;23;20163;-81
2022/02/19 08:55:30;;;;;;;20.55;19.23;;;;;;;;;;6178435;23;20198;-81
2022/02/19 08:57:57;;;;;;;21.73;19.77;;;;;;;;;;6185255;23;20225;-79
2022/02/19 09:00:25;;;;;;;22.73;20.63;;;;;;;;;;6184880;23;20161;-80
2022/02/19 09:02:53;;;;;;;26.63;24.73;;;;;;;;;;6185017;23;20478;-79
2022/02/19 09:05:20;;;;;;;22.75;20.52;;;;;;;;;;6184863;23;20185;-81
2022/02/19 09:07:48;;;;;;;24.63;22.67;;;;;;;;;;6185106;23;20197;-81
2022/02/19 09:10:16;;;;;;;21.88;19.70;;;;;;;;;;6185465;23;20173;-81
2022/02/19 09:12:49;;;;;;;21.25;19.45;;;;;;;;;;6184783;23;20180;-81
2022/02/19 09:15:17;;;;;;;21.00;19.80;;;;;;;;;;6184812;23;20162;-82
2022/02/19 09:17:44;;;;;;;20.63;18.73;;;;;;;;;;6184893;23;20169;-82
2022/02/19 09:20:12;;;;;;;22.40;20.33;;;;;;;;;;6184817;23;20222;-82
2022/02/19 09:22:40;;;;;;;21.35;19.95;;;;;;;;;;6185232;23;20169;-82
2022/02/19 09:25:08;;;;;;;22.23;19.80;;;;;;;;;;6158547;23;20185;-82
2022/02/19 09:27:35;;;;;;;20.52;18.92;;;;;;;;;;6185053;23;20251;-81
2022/02/19 09:30:05;;;;;;;20.83;18.85;;;;;;;;;;6184803;23;20177;-81
2022/02/19 09:32:33;;;;;;;20.25;18.95;;;;;;;;;;6184976;23;20173;-82
2022/02/19 09:35:00;;;;;;;21.80;20.30;;;;;;;;;;6185099;23;20173;-82
2022/02/19 09:37:28;;;;;;;20.75;19.30;;;;;;;;;;6185064;23;20170;-82
2022/02/19 09:39:56;;;;;;;20.83;19.33;;;;;;;;;;6185099;23;20189;-83
2022/02/19 09:42:24;;;;;;;20.30;18.67;;;;;;;;;;6184848;23;20162;-81
2022/02/19 09:44:51;;;;;;;19.83;18.52;;;;;;;;;;6184687;23;20227;-83
2022/02/19 09:47:25;;;;;;;21.00;19.20;;;;;;;;;;6158333;23;20201;-83
2022/02/19 09:49:52;;;;;;;22.48;20.55;;;;;;;;;;6184615;23;20746;-83
2022/02/19 09:52:20;;;;;;;22.42;20.60;;;;;;;;;;6184843;23;20487;-81
2022/02/19 09:54:47;;;;;;;22.80;20.30;;;;;;;;;;6184733;23;20251;-84
2022/02/19 09:57:14;;;;;;;21.90;20.40;;;;;;;;;;6185761;23;20161;-84
2022/02/19 09:59:42;;;;;;;20.98;19.45;;;;;;;;;;6185006;23;20184;-83
2022/02/19 10:02:10;;;;;;;20.58;19.00;;;;;;;;;;6186756;23;20168;-84
2022/02/19 10:04:39;;;;;;;21.10;19.80;;;;;;;;;;6187036;23;20166;-84
2022/02/19 10:07:13;;;;;;;19.58;18.52;;;;;;;;;;6187066;23;20239;-84
2022/02/19 10:09:41;;;;;;;20.80;19.50;;;;;;;;;;6187242;23;20196;-84
2022/02/19 10:12:09;;;;;;;22.05;20.15;;;;;;;;;;6186692;23;20169;-84
2022/02/19 10:14:37;;;;;;;22.83;20.40;;;;;;;;;;6160046;23;20177;-81
2022/02/19 10:17:11;;;;;;;20.30;19.02;;;;;;;;;;6186708;23;20489;-80
2022/02/19 10:19:50;;;;;;;20.42;19.40;;;;;;;;;;6186563;23;20168;-77
2022/02/19 10:22:18;;;;;;;21.05;19.58;;;;;;;;;;6186055;23;20176;-79
2022/02/19 10:24:47;;;;;;;29.60;20.75;;;;;;;;;;6186196;23;20612;-76
2022/02/19 10:27:14;;;;;;;21.38;19.55;;;;;;;;;;6185990;23;20560;-77
2022/02/19 10:29:48;;;;;;;21.27;19.55;;;;;;;;;;6185948;23;20228;-77
2022/02/19 10:32:16;;;;;;;22.25;20.15;;;;;;;;;;6186008;23;20166;-76
2022/02/19 10:34:58;;;;;;;21.70;20.02;;;;;;;;;;6186044;23;20173;-78
2022/02/19 10:37:26;;;;;;;20.08;18.58;;;;;;;;;;6185874;23;20612;-77
2022/02/19 10:39:53;;;;;;;21.60;19.60;;;;;;;;;;6160462;23;20165;-77
2022/02/19 10:42:31;;;;;;;21.05;19.65;;;;;;;;;;6186087;23;20174;-77
2022/02/19 10:44:59;;;;;;;21.02;19.42;;;;;;;;;;6185900;23;20600;-77
2022/02/19 10:47:28;;;;;;;21.20;19.80;;;;;;;;;;6185748;23;20196;-79
2022/02/19 10:50:16;;;;;;;21.83;20.08;;;;;;;;;;6185843;23;20194;-80
2022/02/19 10:52:44;;;;;;;20.73;19.52;;;;;;;;;;6186295;23;20204;-79
2022/02/19 10:55:13;;;;;;;21.55;20.20;;;;;;;;;;6185505;23;20198;-80
2022/02/19 10:57:41;;;;;;;20.83;19.52;;;;;;;;;;6186183;23;20537;-80
2022/02/19 11:00:15;;;;;;;19.83;18.73;;;;;;;;;;6185872;23;20180;-78
2022/02/19 11:02:43;;;;;;;20.02;18.70;;;;;;;;;;6159121;23;20627;-79
2022/02/19 11:05:12;;;;;;;21.25;19.63;;;;;;;;;;6159310;23;20177;-80
2022/02/19 11:07:41;;;;;;;20.05;18.67;;;;;;;;;;6185030;23;20201;-79
2022/02/19 11:10:09;;;;;;;20.60;19.42;;;;;;;;;;6185536;23;20162;-80
2022/02/19 11:12:36;;;;;;;21.02;19.55;;;;;;;;;;6134958;23;20181;-79
2022/02/19 11:15:06;;;;;;;19.80;18.50;;;;;;;;;;6185782;23;20162;-81
2022/02/19 11:17:35;;;;;;;20.92;19.70;;;;;;;;;;6185443;23;20170;-80
2022/02/19 11:20:03;;;;;;;21.65;20.20;;;;;;;;;;6185498;23;20166;-80
2022/02/19 11:22:34;;;;;;;21.77;20.67;;;;;;;;;;6159180;23;20687;-81
2022/02/19 11:25:02;;;;;;;22.23;20.25;;;;;;;;;;6157435;23;20181;-81
2022/02/19 11:27:31;;;;;;;21.30;20.00;;;;;;;;;;6185379;23;20205;-80
2022/02/19 11:30:03;;;;;;;21.23;19.65;;;;;;;;;;6185637;23;20169;-80
2022/02/19 11:32:31;;;;;;;21.92;20.63;;;;;;;;;;6159595;23;20177;-80
2022/02/19 11:34:58;;;;;;;23.00;20.17;;;;;;;;;;6185166;23;20170;-79
2022/02/19 11:37:26;;;;;;;20.70;19.20;;;;;;;;;;6185689;23;20184;-80
2022/02/19 11:40:10;;;;;;;20.88;19.50;;;;;;;;;;6159756;23;20162;-80
2022/02/19 11:42:47;;;;;;;19.67;18.25;;;;;;;;;;6158849;23;20177;-79
2022/02/19 11:45:38;;;;;;;20.63;19.23;;;;;;;;;;6185368;23;20169;-80
2022/02/19 11:48:24;;;;;;;21.48;19.70;;;;;;;;;;6156740;23;20209;-80
2022/02/19 11:51:09;;;;;;;22.80;20.35;;;;;;;;;;6185529;23;20166;-80
2022/02/19 11:53:37;;;;;;;21.73;20.33;;;;;;;;;;6185308;23;20166;-80
2022/02/19 11:56:10;;;;;;;21.15;19.55;;;;;;;;;;6185274;23;20212;-79
2022/02/19 11:58:50;;;;;;;21.50;20.10;;;;;;;;;;6184870;23;20177;-79
2022/02/19 12:01:17;;;;;;;21.92;20.08;;;;;;;;;;6185136;23;20169;-80
2022/02/19 12:03:45;;;;;;;21.93;20.20;;;;;;;;;;6185388;23;20173;-80
2022/02/19 12:06:16;;;;;;;23.38;21.77;;;;;;;;;;6185576;23;20376;-79
2022/02/19 12:09:02;;;;;;;21.10;19.67;;;;;;;;;;6185226;23;20186;-80
2022/02/19 12:11:31;;;;;;;21.80;20.50;;;;;;;;;;6185213;23;20596;-80
2022/02/19 12:14:00;;;;;;;22.65;21.17;;;;;;;;;;6185468;23;20192;-78
2022/02/19 12:16:47;;;;;;;21.25;19.95;;;;;;;;;;6185461;23;20165;-83
2022/02/19 12:19:14;;;;;;;21.95;20.52;;;;;;;;;;6185401;23;20169;-79
2022/02/19 12:21:43;;;;;;;22.17;20.30;;;;;;;;;;6159186;23;20393;-80
2022/02/19 12:24:11;;;;;;;20.80;19.52;;;;;;;;;;6184792;23;20244;-80
2022/02/19 12:26:57;;;;;;;20.33;19.10;;;;;;;;;;6185373;23;20524;-80
2022/02/19 12:29:27;;;;;;;21.05;19.95;;;;;;;;;;6185349;23;20733;-80
2022/02/19 12:32:01;;;;;;;21.20;19.90;;;;;;;;;;6185363;23;20249;-78
2022/02/19 12:34:30;;;;;;;22.15;20.70;;;;;;;;;;6185442;23;20165;-79
2022/02/19 12:36:58;;;;;;;23.88;21.90;;;;;;;;;;6185359;23;20480;-79
2022/02/19 12:39:26;;;;;;;21.35;20.00;;;;;;;;;;6185244;23;20161;-80
2022/02/19 12:41:55;;;;;;;22.52;21.17;;;;;;;;;;6185150;23;20505;-79
2022/02/19 12:44:23;;;;;;;21.40;20.10;;;;;;;;;;6184806;23;20674;-80
2022/02/19 12:46:53;;;;;;;21.90;20.02;;;;;;;;;;6185211;23;20166;-79
2022/02/19 12:49:21;;;;;;;23.13;21.13;;;;;;;;;;6184681;23;20223;-79
2022/02/19 12:51:55;;;;;;;22.88;20.92;;;;;;;;;;6185311;23;20168;-86
2022/02/19 12:54:38;;;;;;;21.27;19.77;;;;;;;;;;6184170;23;20256;-81
2022/02/19 12:57:07;;;;;;;20.92;19.63;;;;;;;;;;6159212;23;20600;-81
2022/02/19 12:59:35;;;;;;;22.17;20.77;;;;;;;;;;6184542;23;20497;-82
2022/02/19 13:02:04;;;;;;;21.45;19.98;;;;;;;;;;6184666;23;20189;-81
2022/02/19 13:04:32;;;;;;;21.65;20.17;;;;;;;;;;6184598;23;20177;-81
2022/02/19 13:07:00;;;;;;;21.02;19.63;;;;;;;;;;6185004;23;20218;-81
2022/02/19 13:09:28;;;;;;;21.33;19.98;;;;;;;;;;6184657;23;20875;-81
2022/02/19 13:11:57;;;;;;;21.45;20.15;;;;;;;;;;6184967;23;20178;-81
2022/02/19 13:14:25;;;;;;;22.48;20.75;;;;;;;;;;6184588;23;20172;-80
2022/02/19 13:16:57;;;;;;;22.27;20.80;;;;;;;;;;6158139;23;20181;-81
2022/02/19 13:19:25;;;;;;;21.83;20.33;;;;;;;;;;6184344;23;20244;-79
2022/02/19 13:22:00;;;;;;;20.17;19.07;;;;;;;;;;6185175;23;20433;-80
2022/02/19 13:24:30;;;;;;;22.33;20.93;;;;;;;;;;6159084;23;20428;-80
2022/02/19 13:27:09;;;;;;;21.60;20.30;;;;;;;;;;6184562;23;20414;-80
2022/02/19 13:29:37;;;;;;;21.20;20.00;;;;;;;;;;6158850;23;20404;-80
2022/02/19 13:32:05;;;;;;;22.17;20.33;;;;;;;;;;6185069;23;20423;-80
2022/02/19 13:34:36;;;;;;;20.30;18.97;;;;;;;;;;6184795;23;20420;-80
2022/02/19 13:37:04;;;;;;;21.17;19.73;;;;;;;;;;6185568;23;20788;-80
2022/02/19 13:39:36;;;;;;;20.80;19.23;;;;;;;;;;6186602;23;20252;-81
2022/02/19 13:42:04;;;;;;;21.95;20.38;;;;;;;;;;6186555;23;20435;-81
2022/02/19 13:44:31;;;;;;;21.70;19.73;;;;;;;;;;6160908;23;20173;-80
2022/02/19 13:46:58;;;;;;;20.60;19.40;;;;;;;;;;6186575;23;20397;-79
2022/02/19 13:49:36;;;;;;;22.67;20.80;;;;;;;;;;6186671;23;20427;-83
2022/02/19 13:52:04;;;;;;;21.17;19.80;;;;;;;;;;6186914;23;20412;-82
2022/02/19 13:54:40;;;;;;;22.20;20.80;;;;;;;;;;6186101;23;20205;-82
2022/02/19 13:57:21;;;;;;;21.77;20.27;;;;;;;;;;6186669;23;20443;-81
2022/02/19 14:00:02;;;;;;;21.20;19.90;;;;;;;;;;6160264;23;20408;-80
2022/02/19 14:02:30;;;;;;;21.37;19.63;;;;;;;;;;6187023;23;20445;-86
2022/02/19 14:05:01;;;;;;;20.83;19.63;;;;;;;;;;6186897;23;20405;-80
2022/02/19 14:07:28;;;;;;;21.45;20.08;;;;;;;;;;6186297;23;20284;-81
2022/02/19 14:10:06;;;;;;;20.70;19.60;;;;;;;;;;6186260;23;20600;-81
2022/02/19 14:12:35;;;;;;;22.90;21.30;;;;;;;;;;6160755;23;20432;-80
2022/02/19 14:15:02;;;;;;;21.47;20.07;;;;;;;;;;6186687;23;20455;-81
2022/02/19 14:17:38;;;;;;;20.65;19.42;;;;;;;;;;6186113;23;20456;-80
2022/02/19 14:20:09;;;;;;;21.50;20.30;;;;;;;;;;6186827;23;20221;-81
2022/02/19 14:22:40;;;;;;;22.47;20.73;;;;;;;;;;6186735;23;20241;-81
2022/02/19 14:25:09;;;;;;;20.58;19.48;;;;;;;;;;6186538;23;20397;-80
2022/02/19 14:27:53;;;;;;;21.53;20.00;;;;;;;;;;6185940;23;20201;-80
2022/02/19 14:30:21;;;;;;;22.03;20.57;;;;;;;;;;6185655;23;20388;-79
2022/02/19 14:32:49;;;;;;;21.07;19.77;;;;;;;;;;6186106;23;20906;-80
2022/02/19 14:35:18;;;;;;;22.40;21.10;;;;;;;;;;6160184;23;20379;-80
2022/02/19 14:37:46;;;;;;;22.93;21.63;;;;;;;;;;6186755;23;20162;-77